Terminal Aerodrome Forecast
Issued by NWS

Home | Current Version | Previous Version | Text Only | Print | Product List | Glossary On
Versions: 1 2 3 4 5 6 7 8 9 10 11 12 13 14 15 16 17 18 19 20 21 22 23 24 25 26
000
FTUS44 KOUN 011414 AAA
TAFPNC
TAF AMD
KPNC 011414Z 0114/0212 12016G25KT P6SM BKN035 BKN120 WS020/21045KT
     FM011600 18012G21KT P6SM SCT040 BKN120
     FM012300 10008KT P6SM BKN080
      TEMPO 0123/0203 5SM TSRA BKN060CB
     FM020300 07012KT 6SM -TSRA BKN060CB
      TEMPO 0203/0207 1SM TSRA BR OVC025CB
     FM020700 09008KT 5SM -TSRA BKN040CB OVC100=

USA.gov is the U.S. government's official web portal to all federal, state and local government web resources and services.